Time;durP1;ratioP1;P1;durP2;ratioP2;P2;SDS_P1;SDS_P2;PMS_P1;PMS_P2;Temp;Humidity;BMP_temperature;BMP_pressure;BME280_temperature;BME280_humidity;BME280_pressure;Samples;Min_cycle;Max_cycle;Signal;HPM_P1;HPM_P2
2022/11/29 00:00:57;;;;;;;14.63;10.03;;;;;;;;;;5024045;28;20233;-27
2022/11/29 00:03:25;;;;;;;16.53;9.97;;;;;;;;;;5031547;28;20207;-29
2022/11/29 00:05:52;;;;;;;17.10;10.20;;;;;;;;;;5035855;28;20690;-29
2022/11/29 00:08:19;;;;;;;16.47;9.73;;;;;;;;;;5027265;28;20255;-27
2022/11/29 00:10:47;;;;;;;20.73;11.83;;;;;;;;;;5028374;28;20313;-24
2022/11/29 00:13:15;;;;;;;16.10;10.73;;;;;;;;;;5032056;28;20203;-25
2022/11/29 00:15:42;;;;;;;16.30;10.83;;;;;;;;;;5022255;28;20661;-26
2022/11/29 00:18:09;;;;;;;18.33;11.17;;;;;;;;;;5023020;28;20210;-26
2022/11/29 00:20:39;;;;;;;13.73;10.07;;;;;;;;;;5030448;28;20230;-25
2022/11/29 00:23:06;;;;;;;16.43;9.70;;;;;;;;;;5023118;28;20267;-26
2022/11/29 00:25:33;;;;;;;14.93;9.83;;;;;;;;;;5028219;28;20228;-27
2022/11/29 00:28:02;;;;;;;17.07;10.17;;;;;;;;;;5031455;28;20233;-28
2022/11/29 00:30:29;;;;;;;20.77;11.50;;;;;;;;;;5019703;28;20230;-25
2022/11/29 00:32:56;;;;;;;19.23;11.80;;;;;;;;;;5029984;28;20207;-28
2022/11/29 00:35:23;;;;;;;29.67;15.00;;;;;;;;;;5033282;28;20309;-24
2022/11/29 00:37:50;;;;;;;24.47;15.43;;;;;;;;;;5034698;28;20203;-27
2022/11/29 00:40:17;;;;;;;16.07;11.00;;;;;;;;;;5026515;28;20223;-26
2022/11/29 00:42:46;;;;;;;21.37;11.93;;;;;;;;;;5031312;28;20206;-27
2022/11/29 00:45:15;;;;;;;18.50;13.10;;;;;;;;;;5019773;28;20211;-24
2022/11/29 00:47:42;;;;;;;18.57;11.83;;;;;;;;;;5030832;28;20348;-25
2022/11/29 00:50:09;;;;;;;17.73;11.00;;;;;;;;;;5029501;28;20224;-26
2022/11/29 00:52:37;;;;;;;18.00;11.50;;;;;;;;;;5035189;28;20281;-27
2022/11/29 00:55:04;;;;;;;17.73;11.20;;;;;;;;;;5024038;28;20236;-27
2022/11/29 00:57:31;;;;;;;18.43;11.43;;;;;;;;;;5020465;28;20210;-27
2022/11/29 00:59:58;;;;;;;17.70;10.87;;;;;;;;;;5022016;28;20207;-26
2022/11/29 01:02:27;;;;;;;15.67;10.40;;;;;;;;;;5028641;28;20213;-26
2022/11/29 01:04:54;;;;;;;14.27;9.77;;;;;;;;;;5029665;28;20298;-26
2022/11/29 01:07:21;;;;;;;17.53;11.70;;;;;;;;;;5029526;28;20225;-26
2022/11/29 01:09:48;;;;;;;18.57;11.83;;;;;;;;;;5020217;28;20675;-24
2022/11/29 01:12:15;;;;;;;15.37;10.80;;;;;;;;;;5022170;28;20325;-25
2022/11/29 01:14:42;;;;;;;15.97;10.43;;;;;;;;;;5024738;28;20256;-24
2022/11/29 01:17:10;;;;;;;17.73;10.53;;;;;;;;;;5026183;28;20211;-27
2022/11/29 01:19:39;;;;;;;19.63;11.67;;;;;;;;;;5033460;28;20198;-26
2022/11/29 01:22:06;;;;;;;16.23;10.40;;;;;;;;;;5034908;28;20230;-25
2022/11/29 01:24:33;;;;;;;18.63;11.43;;;;;;;;;;5022463;28;20217;-28
2022/11/29 01:27:00;;;;;;;21.63;10.70;;;;;;;;;;5029079;28;20217;-25
2022/11/29 01:29:27;;;;;;;16.87;10.50;;;;;;;;;;5026333;28;20220;-26
2022/11/29 01:31:54;;;;;;;17.70;11.17;;;;;;;;;;5025023;28;20229;-26
2022/11/29 01:34:22;;;;;;;15.67;9.50;;;;;;;;;;5030584;28;20210;-27
2022/11/29 01:36:50;;;;;;;13.93;9.27;;;;;;;;;;5030064;28;20194;-26
2022/11/29 01:39:17;;;;;;;14.60;9.40;;;;;;;;;;5015095;28;20207;-25
2022/11/29 01:41:44;;;;;;;17.30;9.53;;;;;;;;;;5029873;28;20233;-23
2022/11/29 01:44:27;;;;;;;16.37;10.43;;;;;;;;;;5027932;28;20293;-28
2022/11/29 01:46:55;;;;;;;19.03;11.73;;;;;;;;;;5024709;28;20222;-26
2022/11/29 01:49:23;;;;;;;18.43;11.03;;;;;;;;;;5029825;28;20207;-27
2022/11/29 01:51:53;;;;;;;15.97;9.80;;;;;;;;;;5029086;28;20222;-26
2022/11/29 01:54:20;;;;;;;19.00;10.50;;;;;;;;;;5022622;28;20207;-27
2022/11/29 01:56:49;;;;;;;19.57;10.80;;;;;;;;;;5025973;28;20676;-25
2022/11/29 01:59:17;;;;;;;15.53;10.17;;;;;;;;;;5027508;28;20213;-28
2022/11/29 02:01:44;;;;;;;15.97;9.83;;;;;;;;;;5017509;28;20622;-28
2022/11/29 02:04:12;;;;;;;18.10;11.23;;;;;;;;;;5029066;28;20210;-27
2022/11/29 02:06:39;;;;;;;16.30;10.27;;;;;;;;;;5038001;28;20195;-27
2022/11/29 02:09:17;;;;;;;15.73;10.60;;;;;;;;;;5029275;28;20203;-28
2022/11/29 02:11:54;;;;;;;15.27;9.53;;;;;;;;;;5018271;28;20223;-25
2022/11/29 02:14:31;;;;;;;15.07;9.70;;;;;;;;;;5023765;28;20285;-25
2022/11/29 02:17:01;;;;;;;18.83;10.23;;;;;;;;;;5023962;28;20225;-24
2022/11/29 02:19:37;;;;;;;19.03;10.57;;;;;;;;;;5029886;28;20199;-27
2022/11/29 02:22:06;;;;;;;15.77;10.40;;;;;;;;;;5038329;28;20229;-26
2022/11/29 02:24:47;;;;;;;19.83;10.77;;;;;;;;;;5018864;28;20210;-25
2022/11/29 02:27:31;;;;;;;16.87;10.43;;;;;;;;;;5025935;28;20228;-29
2022/11/29 02:30:08;;;;;;;16.43;10.57;;;;;;;;;;5026163;28;20214;-25
2022/11/29 02:32:49;;;;;;;18.93;11.67;;;;;;;;;;5029603;28;20199;-24
2022/11/29 02:35:23;;;;;;;15.50;10.93;;;;;;;;;;5030245;28;20222;-28
2022/11/29 02:38:07;;;;;;;14.70;9.07;;;;;;;;;;5035878;28;20202;-28
2022/11/29 02:40:39;;;;;;;13.37;9.27;;;;;;;;;;5023545;28;20226;-25
2022/11/29 02:43:24;;;;;;;10.47;8.30;;;;;;;;;;5033790;28;20631;-27
2022/11/29 02:46:00;;;;;;;15.43;9.40;;;;;;;;;;5017623;28;20230;-27
2022/11/29 02:48:41;;;;;;;13.67;8.57;;;;;;;;;;5032714;28;20226;-25
2022/11/29 02:51:10;;;;;;;13.37;8.90;;;;;;;;;;5039535;28;20469;-29
2022/11/29 02:53:40;;;;;;;13.57;8.73;;;;;;;;;;5023116;28;20210;-25
2022/11/29 02:56:11;;;;;;;14.00;9.70;;;;;;;;;;5032685;28;20210;-25
2022/11/29 02:58:43;;;;;;;13.37;8.50;;;;;;;;;;5024557;28;20198;-25
2022/11/29 03:01:14;;;;;;;10.97;7.87;;;;;;;;;;5024786;28;20314;-27
2022/11/29 03:03:44;;;;;;;12.73;8.83;;;;;;;;;;5032866;28;20203;-27
2022/11/29 03:06:15;;;;;;;10.37;8.27;;;;;;;;;;5033486;28;20217;-27
2022/11/29 03:08:46;;;;;;;11.87;7.77;;;;;;;;;;5031354;28;20225;-26
2022/11/29 03:11:21;;;;;;;12.90;7.80;;;;;;;;;;5023454;28;20308;-27
2022/11/29 03:13:53;;;;;;;12.30;7.73;;;;;;;;;;5026244;28;20204;-25
2022/11/29 03:16:29;;;;;;;11.20;8.60;;;;;;;;;;5020581;28;20223;-24
2022/11/29 03:19:04;;;;;;;11.43;7.87;;;;;;;;;;5032968;28;20289;-29
2022/11/29 03:21:35;;;;;;;10.97;7.43;;;;;;;;;;5040940;28;20229;-26
2022/11/29 03:24:05;;;;;;;12.00;8.67;;;;;;;;;;5027358;28;20298;-26
2022/11/29 03:26:36;;;;;;;10.30;7.77;;;;;;;;;;5032401;28;20212;-25
2022/11/29 03:29:06;;;;;;;11.20;7.87;;;;;;;;;;5032820;28;20227;-28
2022/11/29 03:31:35;;;;;;;11.20;7.50;;;;;;;;;;5028290;28;20250;-27
2022/11/29 03:36:36;;;;;;;9.83;7.33;;;;;;;;;;5051075;28;20241;-30
2022/11/29 03:39:05;;;;;;;12.63;8.07;;;;;;;;;;5045251;28;20200;-28
2022/11/29 03:41:37;;;;;;;9.77;7.17;;;;;;;;;;5052176;28;20241;-27
2022/11/29 03:44:09;;;;;;;10.53;7.33;;;;;;;;;;5050994;28;20214;-31
2022/11/29 03:46:38;;;;;;;9.10;6.47;;;;;;;;;;5044951;28;20210;-25
2022/11/29 03:49:09;;;;;;;9.43;7.77;;;;;;;;;;5050730;28;20228;-30
2022/11/29 03:51:47;;;;;;;8.93;6.97;;;;;;;;;;5052304;28;20230;-29
2022/11/29 03:54:17;;;;;;;8.83;7.40;;;;;;;;;;5042469;28;20264;-30
2022/11/29 03:56:44;;;;;;;8.07;6.27;;;;;;;;;;5047564;28;20234;-30
2022/11/29 03:59:15;;;;;;;9.50;7.70;;;;;;;;;;5048550;28;20285;-27
2022/11/29 04:01:57;;;;;;;9.43;6.97;;;;;;;;;;5044918;28;20222;-29
2022/11/29 04:04:42;;;;;;;11.97;7.60;;;;;;;;;;5008274;28;20206;-28
2022/11/29 04:07:20;;;;;;;9.27;7.00;;;;;;;;;;5044763;28;20210;-28
2022/11/29 04:09:55;;;;;;;10.10;6.97;;;;;;;;;;5048570;28;20216;-29
2022/11/29 04:12:30;;;;;;;9.53;6.87;;;;;;;;;;5051604;28;20201;-28
2022/11/29 04:15:21;;;;;;;8.40;6.70;;;;;;;;;;5042595;28;20209;-26
2022/11/29 04:18:12;;;;;;;9.90;7.23;;;;;;;;;;5044451;28;20198;-30
2022/11/29 04:20:54;;;;;;;10.83;7.77;;;;;;;;;;5031091;28;20228;-27
2022/11/29 04:23:45;;;;;;;9.30;7.10;;;;;;;;;;5041290;28;20404;-32
2022/11/29 04:26:25;;;;;;;9.83;7.23;;;;;;;;;;5050309;28;20210;-25
2022/11/29 04:29:04;;;;;;;8.83;7.10;;;;;;;;;;5043896;28;20218;-29
2022/11/29 04:31:38;;;;;;;9.57;7.03;;;;;;;;;;5043362;28;20232;-31
2022/11/29 04:34:23;;;;;;;8.60;7.17;;;;;;;;;;5051710;28;20191;-30
2022/11/29 04:37:01;;;;;;;12.47;7.77;;;;;;;;;;5051467;28;20202;-27
2022/11/29 04:39:32;;;;;;;8.73;7.23;;;;;;;;;;5044208;28;20213;-29
2022/11/29 04:42:06;;;;;;;10.60;6.77;;;;;;;;;;5048485;28;20221;-30
2022/11/29 04:44:42;;;;;;;10.10;6.83;;;;;;;;;;5044977;28;20207;-29
2022/11/29 04:47:19;;;;;;;8.07;6.60;;;;;;;;;;5047362;28;20228;-26
2022/11/29 04:49:57;;;;;;;7.63;5.80;;;;;;;;;;5050981;28;20223;-31
2022/11/29 04:52:30;;;;;;;9.77;6.37;;;;;;;;;;5050822;28;20198;-27
2022/11/29 04:55:03;;;;;;;7.67;6.30;;;;;;;;;;5041043;28;20220;-26
2022/11/29 04:57:34;;;;;;;9.03;6.03;;;;;;;;;;5046531;28;20301;-28
2022/11/29 05:00:08;;;;;;;10.70;7.27;;;;;;;;;;5041267;28;20207;-30
2022/11/29 05:02:37;;;;;;;6.87;5.57;;;;;;;;;;5049537;28;20209;-32
2022/11/29 05:05:11;;;;;;;9.67;5.57;;;;;;;;;;5050556;28;20285;-28
2022/11/29 05:07:45;;;;;;;8.50;5.37;;;;;;;;;;5043604;28;20224;-30
2022/11/29 05:10:20;;;;;;;7.60;6.30;;;;;;;;;;5041499;28;20206;-30
2022/11/29 05:12:51;;;;;;;8.87;5.90;;;;;;;;;;5042102;28;20213;-25
2022/11/29 05:15:36;;;;;;;8.53;5.70;;;;;;;;;;5042341;28;20211;-32
2022/11/29 05:18:07;;;;;;;9.23;6.77;;;;;;;;;;5050302;28;20198;-29
2022/11/29 05:20:37;;;;;;;10.87;6.57;;;;;;;;;;5046025;28;20350;-27
2022/11/29 05:23:15;;;;;;;8.00;5.93;;;;;;;;;;5043057;28;20567;-26
2022/11/29 05:25:49;;;;;;;9.70;7.07;;;;;;;;;;5036861;28;20209;-27
2022/11/29 05:28:20;;;;;;;9.33;6.07;;;;;;;;;;5049433;28;20218;-24
2022/11/29 05:30:58;;;;;;;11.40;6.80;;;;;;;;;;5038975;28;20244;-32
2022/11/29 05:33:30;;;;;;;11.07;7.97;;;;;;;;;;5049254;28;20206;-27
2022/11/29 05:36:02;;;;;;;10.53;7.37;;;;;;;;;;5050300;28;20217;-29
2022/11/29 05:38:38;;;;;;;9.77;7.23;;;;;;;;;;5050590;28;20204;-30
2022/11/29 05:41:13;;;;;;;10.07;6.77;;;;;;;;;;5043223;28;20232;-29
2022/11/29 05:43:48;;;;;;;12.63;6.70;;;;;;;;;;5049929;28;20205;-30
2022/11/29 05:46:19;;;;;;;11.70;6.97;;;;;;;;;;5045458;28;20215;-28
2022/11/29 05:48:51;;;;;;;10.93;6.43;;;;;;;;;;5035400;28;20220;-30
2022/11/29 05:51:22;;;;;;;11.23;6.50;;;;;;;;;;5049490;28;20261;-32
2022/11/29 05:53:52;;;;;;;8.33;6.90;;;;;;;;;;5037977;28;20201;-28
2022/11/29 05:56:26;;;;;;;10.50;6.97;;;;;;;;;;5038357;28;20202;-28
2022/11/29 05:58:56;;;;;;;9.10;7.17;;;;;;;;;;5050177;28;20218;-30
2022/11/29 06:01:25;;;;;;;7.67;5.77;;;;;;;;;;5041370;28;20238;-27
2022/11/29 06:03:56;;;;;;;7.97;6.20;;;;;;;;;;5044988;28;20579;-28
2022/11/29 06:06:28;;;;;;;7.80;6.07;;;;;;;;;;5049059;28;20212;-31
2022/11/29 06:08:59;;;;;;;6.77;5.90;;;;;;;;;;5029681;28;20222;-28
2022/11/29 06:11:31;;;;;;;7.77;5.90;;;;;;;;;;5048199;28;20221;-30
2022/11/29 06:14:04;;;;;;;7.70;6.13;;;;;;;;;;5053826;28;20205;-27
2022/11/29 06:16:50;;;;;;;8.07;5.73;;;;;;;;;;5041289;28;20207;-29
2022/11/29 06:19:29;;;;;;;8.87;5.23;;;;;;;;;;5020084;28;20280;-29
2022/11/29 06:22:01;;;;;;;8.13;5.53;;;;;;;;;;5054192;28;20221;-28
2022/11/29 06:24:41;;;;;;;8.77;5.00;;;;;;;;;;5044780;28;20213;-28
2022/11/29 06:27:22;;;;;;;7.37;5.50;;;;;;;;;;5050285;28;20202;-26
2022/11/29 06:29:53;;;;;;;7.27;4.97;;;;;;;;;;5032721;28;20225;-31
2022/11/29 06:32:26;;;;;;;6.97;4.93;;;;;;;;;;5047679;28;20300;-32
2022/11/29 06:34:55;;;;;;;5.73;4.70;;;;;;;;;;5055452;28;20288;-26
2022/11/29 06:37:24;;;;;;;6.90;5.20;;;;;;;;;;5060017;28;20201;-31
2022/11/29 06:39:51;;;;;;;9.00;4.93;;;;;;;;;;5052897;28;20208;-26
2022/11/29 06:42:20;;;;;;;6.03;4.50;;;;;;;;;;5060715;28;20300;-29
2022/11/29 06:44:47;;;;;;;6.17;4.43;;;;;;;;;;5052449;28;20205;-28
2022/11/29 06:47:18;;;;;;;5.70;4.60;;;;;;;;;;5052603;28;20242;-27
2022/11/29 06:49:47;;;;;;;6.77;4.87;;;;;;;;;;5053754;28;20213;-26
2022/11/29 06:52:22;;;;;;;7.13;4.90;;;;;;;;;;5053981;28;20221;-28
2022/11/29 06:54:55;;;;;;;7.77;5.60;;;;;;;;;;5034488;28;20218;-29
2022/11/29 06:57:28;;;;;;;8.30;5.47;;;;;;;;;;5048972;28;20206;-30
2022/11/29 07:00:03;;;;;;;5.40;4.73;;;;;;;;;;5049154;28;20292;-29
2022/11/29 07:02:40;;;;;;;5.63;4.63;;;;;;;;;;5051563;28;20227;-32
2022/11/29 07:05:14;;;;;;;6.43;5.17;;;;;;;;;;5053473;28;20206;-30
2022/11/29 07:07:42;;;;;;;8.83;4.93;;;;;;;;;;5047489;28;20212;-25
2022/11/29 07:10:15;;;;;;;6.97;5.10;;;;;;;;;;5047845;28;20226;-26
2022/11/29 07:12:43;;;;;;;8.17;5.17;;;;;;;;;;5053283;28;20285;-28
2022/11/29 07:15:13;;;;;;;7.97;4.87;;;;;;;;;;5039575;28;20205;-30
2022/11/29 07:17:45;;;;;;;7.17;5.17;;;;;;;;;;5050633;28;20206;-30
2022/11/29 07:20:16;;;;;;;6.87;4.83;;;;;;;;;;5052815;28;20208;-26
2022/11/29 07:22:50;;;;;;;6.47;4.13;;;;;;;;;;5049683;28;20202;-25
2022/11/29 07:25:22;;;;;;;5.93;4.60;;;;;;;;;;5035502;28;20213;-27
2022/11/29 07:27:53;;;;;;;6.07;4.97;;;;;;;;;;5044444;28;20198;-28
2022/11/29 07:30:21;;;;;;;7.30;4.60;;;;;;;;;;5042533;28;20226;-30
2022/11/29 07:32:56;;;;;;;5.50;4.70;;;;;;;;;;5048267;28;20206;-28
2022/11/29 07:35:29;;;;;;;4.83;4.30;;;;;;;;;;5052181;28;20209;-31
2022/11/29 07:38:03;;;;;;;4.70;4.20;;;;;;;;;;5050281;28;20228;-30
2022/11/29 07:40:33;;;;;;;4.77;4.00;;;;;;;;;;5041687;28;20222;-27
2022/11/29 07:43:09;;;;;;;5.23;3.87;;;;;;;;;;5050376;28;20209;-30
2022/11/29 07:45:36;;;;;;;7.50;4.03;;;;;;;;;;5039917;28;20224;-32
2022/11/29 07:48:03;;;;;;;8.07;4.37;;;;;;;;;;5050689;28;20205;-28
2022/11/29 07:50:30;;;;;;;4.33;3.93;;;;;;;;;;5051734;28;20225;-32
2022/11/29 07:52:58;;;;;;;5.13;4.27;;;;;;;;;;5052178;28;20265;-29
2022/11/29 07:55:26;;;;;;;6.60;4.50;;;;;;;;;;5042308;28;20201;-29
2022/11/29 07:57:53;;;;;;;4.53;3.97;;;;;;;;;;5042569;28;20209;-31
2022/11/29 08:00:22;;;;;;;5.60;3.90;;;;;;;;;;5036523;28;20225;-27
2022/11/29 08:02:50;;;;;;;9.27;4.07;;;;;;;;;;5050886;28;20205;-28
2022/11/29 08:05:18;;;;;;;4.60;3.57;;;;;;;;;;5053864;28;20204;-30
2022/11/29 08:07:46;;;;;;;4.77;3.90;;;;;;;;;;5050052;28;20305;-25
2022/11/29 08:10:14;;;;;;;4.63;3.60;;;;;;;;;;5047576;28;20261;-25
2022/11/29 08:12:43;;;;;;;5.70;3.27;;;;;;;;;;5053636;28;20213;-26
2022/11/29 08:15:10;;;;;;;5.93;3.20;;;;;;;;;;5047481;28;20202;-28
2022/11/29 08:17:39;;;;;;;3.67;3.37;;;;;;;;;;5053458;28;20209;-30
2022/11/29 08:20:07;;;;;;;6.13;3.50;;;;;;;;;;5053706;28;20679;-27
2022/11/29 08:22:35;;;;;;;5.10;3.83;;;;;;;;;;5045132;28;20252;-26
2022/11/29 08:25:02;;;;;;;7.43;3.90;;;;;;;;;;5050111;28;20206;-30
2022/11/29 08:27:29;;;;;;;4.57;3.23;;;;;;;;;;5052231;28;20217;-31
2022/11/29 08:29:56;;;;;;;5.20;3.93;;;;;;;;;;5042321;28;20232;-30
2022/11/29 08:32:23;;;;;;;6.73;3.53;;;;;;;;;;5049458;28;20206;-30
2022/11/29 08:34:52;;;;;;;5.33;3.40;;;;;;;;;;5053076;28;20217;-32
2022/11/29 08:37:19;;;;;;;4.70;3.37;;;;;;;;;;5054107;28;20218;-30
2022/11/29 08:39:46;;;;;;;6.03;3.70;;;;;;;;;;5045595;28;20202;-28
2022/11/29 08:42:13;;;;;;;4.27;3.47;;;;;;;;;;5048674;28;20287;-29
2022/11/29 08:44:41;;;;;;;3.83;3.53;;;;;;;;;;5045968;28;20290;-28
2022/11/29 08:50:02;;;;;;;6.30;3.50;;;;;;;;;;5041752;28;20305;-29
2022/11/29 08:55:22;;;;;;;5.33;3.30;;;;;;;;;;5049836;28;20247;-29
2022/11/29 08:57:49;;;;;;;6.27;3.47;;;;;;;;;;5044184;28;20209;-25
2022/11/29 09:00:17;;;;;;;5.87;3.67;;;;;;;;;;5039041;28;20233;-27
2022/11/29 09:02:44;;;;;;;3.80;3.13;;;;;;;;;;5049939;28;20269;-27
2022/11/29 09:05:13;;;;;;;4.37;3.47;;;;;;;;;;5043272;28;20210;-28
2022/11/29 09:07:42;;;;;;;5.47;3.63;;;;;;;;;;5029762;28;20214;-24
2022/11/29 09:10:10;;;;;;;3.90;3.50;;;;;;;;;;5037978;28;20237;-30
2022/11/29 09:12:37;;;;;;;4.80;3.87;;;;;;;;;;5041246;28;20390;-28
2022/11/29 09:15:05;;;;;;;4.87;3.30;;;;;;;;;;5034966;28;20205;-28
2022/11/29 09:17:33;;;;;;;3.57;3.17;;;;;;;;;;5048724;28;20256;-29
2022/11/29 09:20:00;;;;;;;4.20;3.80;;;;;;;;;;5042987;28;20197;-31
2022/11/29 09:22:29;;;;;;;6.60;3.93;;;;;;;;;;5039897;28;20225;-28
2022/11/29 09:24:57;;;;;;;5.90;3.97;;;;;;;;;;5040888;28;20293;-26
2022/11/29 09:27:24;;;;;;;6.60;3.77;;;;;;;;;;5047148;28;20572;-30
2022/11/29 09:29:51;;;;;;;7.27;4.10;;;;;;;;;;5027588;28;20230;-29
2022/11/29 09:32:18;;;;;;;5.47;4.57;;;;;;;;;;5043871;28;20226;-29
2022/11/29 09:34:45;;;;;;;5.43;4.30;;;;;;;;;;5043198;28;20205;-26
2022/11/29 09:37:16;;;;;;;6.03;4.50;;;;;;;;;;5038309;28;20210;-26
2022/11/29 09:39:44;;;;;;;8.00;4.63;;;;;;;;;;5047685;28;20194;-25
2022/11/29 09:42:16;;;;;;;5.33;4.50;;;;;;;;;;5044522;28;20332;-25
2022/11/29 09:44:50;;;;;;;6.70;4.97;;;;;;;;;;5032689;28;20216;-27
2022/11/29 09:47:25;;;;;;;6.50;5.00;;;;;;;;;;5041648;28;20206;-26
2022/11/29 09:50:01;;;;;;;6.07;4.50;;;;;;;;;;5041682;28;20232;-31
2022/11/29 09:52:34;;;;;;;7.93;4.87;;;;;;;;;;5045363;28;20525;-26
2022/11/29 09:55:09;;;;;;;6.67;4.50;;;;;;;;;;5043460;28;20206;-26
2022/11/29 09:57:37;;;;;;;5.33;4.83;;;;;;;;;;5047429;28;20205;-27
2022/11/29 10:00:05;;;;;;;8.83;4.80;;;;;;;;;;5034808;28;20199;-29
2022/11/29 10:02:38;;;;;;;9.30;4.57;;;;;;;;;;5041705;28;20211;-28
2022/11/29 10:05:10;;;;;;;7.33;4.60;;;;;;;;;;5043100;28;20213;-30
2022/11/29 10:07:39;;;;;;;8.80;4.27;;;;;;;;;;5035863;28;20213;-29
2022/11/29 10:10:14;;;;;;;7.77;4.97;;;;;;;;;;5042633;28;20228;-30
2022/11/29 10:12:44;;;;;;;6.53;4.20;;;;;;;;;;5045605;28;20205;-30
2022/11/29 10:15:15;;;;;;;9.13;4.80;;;;;;;;;;5040744;28;20236;-29
2022/11/29 10:17:44;;;;;;;8.97;4.60;;;;;;;;;;5040374;28;20202;-30
2022/11/29 10:20:13;;;;;;;5.80;4.70;;;;;;;;;;5045787;28;20492;-26
2022/11/29 10:22:43;;;;;;;5.63;4.53;;;;;;;;;;5037797;28;20210;-28
2022/11/29 10:25:17;;;;;;;7.80;4.93;;;;;;;;;;5040590;28;20297;-27
2022/11/29 10:27:44;;;;;;;11.33;4.27;;;;;;;;;;5043551;28;20213;-32
2022/11/29 10:30:15;;;;;;;5.63;4.10;;;;;;;;;;5044791;28;20522;-28
2022/11/29 10:32:44;;;;;;;7.23;4.90;;;;;;;;;;5042893;28;20259;-28
2022/11/29 10:35:32;;;;;;;8.43;4.97;;;;;;;;;;5036716;28;20282;-27
2022/11/29 10:38:01;;;;;;;5.87;5.17;;;;;;;;;;5039663;28;20205;-28
2022/11/29 10:40:32;;;;;;;5.20;4.50;;;;;;;;;;5044963;28;20240;-28
2022/11/29 10:43:00;;;;;;;5.27;4.67;;;;;;;;;;5042291;28;20209;-27
2022/11/29 10:45:28;;;;;;;8.40;5.97;;;;;;;;;;5031881;28;20231;-28
2022/11/29 10:47:58;;;;;;;6.07;5.30;;;;;;;;;;5040804;28;20230;-28
2022/11/29 10:50:26;;;;;;;6.67;4.90;;;;;;;;;;5040170;28;20321;-26
2022/11/29 10:52:54;;;;;;;6.87;5.07;;;;;;;;;;5047989;28;20208;-29
2022/11/29 10:55:22;;;;;;;8.70;5.27;;;;;;;;;;5032191;28;20206;-27
2022/11/29 10:58:04;;;;;;;7.83;5.17;;;;;;;;;;5044997;28;20208;-24
2022/11/29 11:00:42;;;;;;;5.87;5.27;;;;;;;;;;5033821;28;20221;-26
2022/11/29 11:03:17;;;;;;;6.17;4.93;;;;;;;;;;5047223;28;20210;-30
2022/11/29 11:05:55;;;;;;;5.73;4.70;;;;;;;;;;5044121;28;20215;-26
2022/11/29 11:08:25;;;;;;;8.63;5.33;;;;;;;;;;5037693;28;20232;-27
2022/11/29 11:10:54;;;;;;;5.33;4.83;;;;;;;;;;5044209;28;20226;-25
2022/11/29 11:13:22;;;;;;;7.07;5.47;;;;;;;;;;5046381;28;20220;-27
2022/11/29 11:15:56;;;;;;;4.90;4.33;;;;;;;;;;5038960;28;20208;-25
2022/11/29 11:18:24;;;;;;;5.87;5.10;;;;;;;;;;5049412;28;20216;-28
2022/11/29 11:20:53;;;;;;;5.50;3.47;;;;;;;;;;5046829;28;20305;-24
2022/11/29 11:23:24;;;;;;;5.03;4.20;;;;;;;;;;5051361;28;20224;-23
2022/11/29 11:26:00;;;;;;;6.47;5.20;;;;;;;;;;5045882;28;20202;-25
2022/11/29 11:28:31;;;;;;;5.57;4.93;;;;;;;;;;5050486;28;20210;-29
2022/11/29 11:31:01;;;;;;;6.13;5.53;;;;;;;;;;5037825;28;20224;-27
2022/11/29 11:33:30;;;;;;;9.63;6.33;;;;;;;;;;5042472;28;20301;-31
2022/11/29 11:36:04;;;;;;;5.57;4.63;;;;;;;;;;5047772;28;20229;-32
2022/11/29 11:38:32;;;;;;;5.43;4.47;;;;;;;;;;5051511;28;20216;-24
2022/11/29 11:41:07;;;;;;;5.67;4.47;;;;;;;;;;5039136;28;20225;-25
2022/11/29 11:43:35;;;;;;;5.53;4.80;;;;;;;;;;5042747;28;20221;-27
2022/11/29 11:46:03;;;;;;;7.67;5.27;;;;;;;;;;5044510;28;20202;-25
2022/11/29 11:48:30;;;;;;;6.87;5.10;;;;;;;;;;5047221;28;20216;-24
2022/11/29 11:50:58;;;;;;;6.13;5.00;;;;;;;;;;5035387;28;20231;-27
2022/11/29 11:53:27;;;;;;;5.60;4.87;;;;;;;;;;5044501;28;20208;-26
2022/11/29 11:55:56;;;;;;;5.47;4.87;;;;;;;;;;5047806;28;20208;-26
2022/11/29 11:58:24;;;;;;;6.07;5.10;;;;;;;;;;5048885;28;20210;-27
2022/11/29 12:00:52;;;;;;;6.20;5.43;;;;;;;;;;5037063;28;20218;-27
2022/11/29 12:03:38;;;;;;;5.63;5.03;;;;;;;;;;5050040;28;20566;-31
2022/11/29 12:06:18;;;;;;;6.17;5.40;;;;;;;;;;5037402;28;20216;-25
2022/11/29 12:08:45;;;;;;;6.40;5.17;;;;;;;;;;5040238;28;20198;-28
2022/11/29 12:11:15;;;;;;;6.80;5.20;;;;;;;;;;5042087;28;20283;-28
2022/11/29 12:13:53;;;;;;;6.33;5.63;;;;;;;;;;5045635;28;20213;-24
2022/11/29 12:16:26;;;;;;;6.83;5.80;;;;;;;;;;5042686;28;20217;-26
2022/11/29 12:18:55;;;;;;;6.40;5.30;;;;;;;;;;5042606;28;20190;-30
2022/11/29 12:21:24;;;;;;;5.37;4.87;;;;;;;;;;5050739;28;20229;-23
2022/11/29 12:23:54;;;;;;;6.00;5.43;;;;;;;;;;5038041;28;20293;-25
2022/11/29 12:26:23;;;;;;;7.57;5.57;;;;;;;;;;5042461;28;20220;-27
2022/11/29 12:28:50;;;;;;;6.67;5.67;;;;;;;;;;5050324;28;20204;-28
2022/11/29 12:31:23;;;;;;;6.30;5.67;;;;;;;;;;5037401;28;20320;-27
2022/11/29 12:33:53;;;;;;;7.50;5.63;;;;;;;;;;5039604;28;20274;-31
2022/11/29 12:36:25;;;;;;;9.23;6.80;;;;;;;;;;5029818;28;20221;-24
2022/11/29 12:39:13;;;;;;;9.33;6.90;;;;;;;;;;5038061;28;20197;-24
2022/11/29 12:41:45;;;;;;;9.17;6.53;;;;;;;;;;5045001;28;20225;-25
2022/11/29 12:44:18;;;;;;;8.10;5.73;;;;;;;;;;5039002;28;20277;-30
2022/11/29 12:46:48;;;;;;;8.83;6.70;;;;;;;;;;5040441;28;20200;-30
2022/11/29 12:49:20;;;;;;;10.03;6.63;;;;;;;;;;5044663;28;20202;-27
2022/11/29 12:51:54;;;;;;;9.20;6.90;;;;;;;;;;5041367;28;20240;-28
2022/11/29 12:54:28;;;;;;;8.67;6.57;;;;;;;;;;5038695;28;20202;-30
2022/11/29 12:56:58;;;;;;;8.43;6.60;;;;;;;;;;5033119;28;20202;-30
2022/11/29 12:59:32;;;;;;;8.60;6.80;;;;;;;;;;5032407;28;20207;-26
2022/11/29 13:02:09;;;;;;;9.43;7.37;;;;;;;;;;5041230;28;20233;-31
2022/11/29 13:04:43;;;;;;;8.87;6.60;;;;;;;;;;5040607;28;20211;-26
2022/11/29 13:07:19;;;;;;;8.77;6.60;;;;;;;;;;5462862;22;20780;-29
2022/11/29 13:09:57;;;;;;;10.13;6.37;;;;;;;;;;5050250;28;20198;-29
2022/11/29 13:12:31;;;;;;;8.30;6.60;;;;;;;;;;5031866;28;20301;-30
2022/11/29 13:15:02;;;;;;;8.93;6.43;;;;;;;;;;5030679;28;20573;-29
2022/11/29 13:17:34;;;;;;;8.27;6.07;;;;;;;;;;5029406;28;20256;-28
2022/11/29 13:20:04;;;;;;;8.03;5.93;;;;;;;;;;5030640;28;20221;-28
2022/11/29 13:22:37;;;;;;;9.00;6.20;;;;;;;;;;5030031;28;20242;-30
2022/11/29 13:25:12;;;;;;;7.47;5.50;;;;;;;;;;5027023;28;20661;-28
2022/11/29 13:27:42;;;;;;;5.90;5.07;;;;;;;;;;5036838;28;20213;-30
2022/11/29 13:30:13;;;;;;;6.13;5.10;;;;;;;;;;5025115;28;20567;-27
2022/11/29 13:32:44;;;;;;;5.80;5.13;;;;;;;;;;5029582;28;20297;-28
2022/11/29 13:35:17;;;;;;;6.13;5.00;;;;;;;;;;5030551;28;20293;-29
2022/11/29 13:37:49;;;;;;;6.23;5.07;;;;;;;;;;5034790;28;20209;-29
2022/11/29 13:40:24;;;;;;;5.57;5.07;;;;;;;;;;5032271;28;20230;-32
2022/11/29 13:42:56;;;;;;;5.63;5.03;;;;;;;;;;5029970;28;20651;-28
2022/11/29 13:45:25;;;;;;;5.93;4.47;;;;;;;;;;5018546;28;20274;-28
2022/11/29 13:47:54;;;;;;;5.50;4.87;;;;;;;;;;5030520;28;20203;-30
2022/11/29 13:50:36;;;;;;;5.73;4.57;;;;;;;;;;5030258;28;20236;-28
2022/11/29 13:53:06;;;;;;;7.33;4.63;;;;;;;;;;5021151;28;20633;-29
2022/11/29 13:55:33;;;;;;;5.53;4.47;;;;;;;;;;5027494;28;20652;-30
2022/11/29 13:58:04;;;;;;;5.93;4.53;;;;;;;;;;5030275;28;20195;-29
2022/11/29 14:00:32;;;;;;;5.87;4.20;;;;;;;;;;5024042;28;20229;-30
2022/11/29 14:03:14;;;;;;;5.90;3.87;;;;;;;;;;5029071;28;20551;-28
2022/11/29 14:05:41;;;;;;;4.77;4.00;;;;;;;;;;5028535;28;20208;-31
2022/11/29 14:11:03;;;;;;;4.87;4.20;;;;;;;;;;5097764;27;20608;-36
2022/11/29 14:13:32;;;;;;;5.27;4.00;;;;;;;;;;5105394;28;20200;-39
2022/11/29 14:16:01;;;;;;;5.37;4.10;;;;;;;;;;5095360;28;20585;-37
2022/11/29 14:18:49;;;;;;;4.43;3.63;;;;;;;;;;5107154;28;20676;-38
2022/11/29 14:21:16;;;;;;;4.20;3.80;;;;;;;;;;5095043;28;20242;-39
2022/11/29 14:23:45;;;;;;;5.70;3.93;;;;;;;;;;5103029;28;20208;-34
2022/11/29 14:26:29;;;;;;;3.90;3.60;;;;;;;;;;5098270;28;20197;-36
2022/11/29 14:28:57;;;;;;;4.47;3.87;;;;;;;;;;5107137;28;20269;-35
2022/11/29 14:31:43;;;;;;;5.23;3.70;;;;;;;;;;5098935;28;20230;-39
2022/11/29 14:34:13;;;;;;;4.00;3.60;;;;;;;;;;5101800;28;20294;-41
2022/11/29 14:36:45;;;;;;;5.23;4.10;;;;;;;;;;5107478;28;20200;-32
2022/11/29 14:39:21;;;;;;;4.53;3.57;;;;;;;;;;5096712;28;20804;-38
2022/11/29 14:41:53;;;;;;;4.37;3.97;;;;;;;;;;5099390;28;20220;-39
2022/11/29 14:44:23;;;;;;;4.37;3.63;;;;;;;;;;5103767;28;20725;-37
2022/11/29 14:46:59;;;;;;;4.80;3.70;;;;;;;;;;5093222;28;20295;-39
2022/11/29 14:49:27;;;;;;;5.27;4.20;;;;;;;;;;5096239;28;20227;-36
2022/11/29 14:52:15;;;;;;;6.17;4.63;;;;;;;;;;5096967;28;20227;-31
2022/11/29 14:54:52;;;;;;;6.13;4.47;;;;;;;;;;5122655;28;20210;-33
2022/11/29 14:57:38;;;;;;;6.80;4.63;;;;;;;;;;5107851;28;20295;-36
2022/11/29 15:00:10;;;;;;;6.40;4.53;;;;;;;;;;5087230;28;20209;-37
2022/11/29 15:02:40;;;;;;;4.63;4.07;;;;;;;;;;5095557;28;20204;-30
2022/11/29 15:05:12;;;;;;;4.30;3.80;;;;;;;;;;5100075;28;20211;-37
2022/11/29 15:07:44;;;;;;;5.53;4.60;;;;;;;;;;5103429;28;20200;-34
2022/11/29 15:10:16;;;;;;;4.50;4.10;;;;;;;;;;5098706;28;20221;-39
2022/11/29 15:12:44;;;;;;;5.23;4.63;;;;;;;;;;5102204;28;20208;-35
2022/11/29 15:15:20;;;;;;;6.77;4.53;;;;;;;;;;5096220;28;20197;-39